createdAt,value
2023-05-06T00:01:47.435Z,3.83
2023-05-06T00:04:20.687Z,9.40
2023-05-06T00:06:54.258Z,4.80
2023-05-06T00:09:27.989Z,5.20
2023-05-06T00:12:01.199Z,0.70
2023-05-06T00:14:34.421Z,0.70
2023-05-06T00:17:07.937Z,0.70
2023-05-06T00:19:41.121Z,0.70
2023-05-06T00:22:14.429Z,0.70
2023-05-06T00:24:47.661Z,0.70
2023-05-06T00:27:20.908Z,0.70
2023-05-06T00:29:54.131Z,0.70
2023-05-06T00:32:27.366Z,0.70
2023-05-06T00:35:00.602Z,0.70
2023-05-06T00:37:33.802Z,0.70
2023-05-06T00:40:07.381Z,0.70
2023-05-06T00:42:40.676Z,0.70
2023-05-06T00:45:13.918Z,0.70
2023-05-06T00:47:47.238Z,0.70
2023-05-06T00:50:20.697Z,0.70
2023-05-06T00:52:54.654Z,0.70
2023-05-06T00:55:28.140Z,0.70
2023-05-06T00:58:01.720Z,0.70
2023-05-06T01:00:35.271Z,0.70
2023-05-06T01:03:08.597Z,0.70
2023-05-06T01:06:00.774Z,0.70
2023-05-06T01:08:42.135Z,0.70
2023-05-06T01:11:18.256Z,0.70
2023-05-06T01:13:56.853Z,0.70
2023-05-06T01:16:35.583Z,0.70
2023-05-06T01:19:16.903Z,0.70
2023-05-06T01:21:52.105Z,0.70
2023-05-06T01:24:34.920Z,0.70
2023-05-06T01:27:08.955Z,0.70
2023-05-06T01:29:43.478Z,0.70
2023-05-06T01:32:46.128Z,0.70
2023-05-06T01:35:25.613Z,0.70
2023-05-06T01:38:14.114Z,0.70
2023-05-06T01:40:49.524Z,0.70
2023-05-06T01:43:22.902Z,0.70
2023-05-06T01:45:56.786Z,9.07
2023-05-06T01:48:31.444Z,0.70
2023-05-06T01:51:04.928Z,0.70
2023-05-06T01:53:38.785Z,0.70
2023-05-06T01:56:12.055Z,0.70
2023-05-06T01:58:45.433Z,0.70
2023-05-06T02:01:18.708Z,0.70
2023-05-06T02:03:52.248Z,0.70
2023-05-06T02:06:25.785Z,0.70
2023-05-06T02:08:59.016Z,0.70
2023-05-06T02:11:32.231Z,1.43
2023-05-06T02:14:05.491Z,0.70
2023-05-06T02:16:38.784Z,0.70
2023-05-06T02:19:12.356Z,0.70
2023-05-06T02:21:45.615Z,0.70
2023-05-06T02:24:18.826Z,0.70
2023-05-06T02:26:52.394Z,0.70
2023-05-06T02:29:25.775Z,0.70
2023-05-06T02:31:59.122Z,0.70
2023-05-06T02:34:32.408Z,0.70
2023-05-06T02:37:05.676Z,0.70
2023-05-06T02:39:38.880Z,1.13
2023-05-06T02:42:16.118Z,0.70
2023-05-06T02:44:49.378Z,0.70
2023-05-06T02:47:22.581Z,0.70
2023-05-06T02:49:55.842Z,0.70
2023-05-06T02:52:29.039Z,0.70
2023-05-06T02:55:02.488Z,0.70
2023-05-06T02:57:35.769Z,0.70
2023-05-06T03:00:11.027Z,0.70
2023-05-06T03:02:44.539Z,0.70
2023-05-06T03:05:18.125Z,0.70
2023-05-06T03:07:51.495Z,0.70
2023-05-06T03:10:24.746Z,0.70
2023-05-06T03:12:57.962Z,0.70
2023-05-06T03:15:32.208Z,0.70
2023-05-06T03:18:05.447Z,0.70
2023-05-06T03:20:38.661Z,0.70
2023-05-06T03:23:11.855Z,0.70
2023-05-06T03:25:45.198Z,2.87
2023-05-06T03:28:18.453Z,0.70
2023-05-06T03:30:51.657Z,0.70
2023-05-06T03:33:24.943Z,0.70
2023-05-06T03:35:58.136Z,0.70
2023-05-06T03:38:31.393Z,0.70
2023-05-06T03:41:04.801Z,1.07
2023-05-06T03:43:38.112Z,0.70
2023-05-06T03:46:11.364Z,0.70
2023-05-06T03:48:44.653Z,0.70
2023-05-06T03:51:17.981Z,0.70
2023-05-06T03:53:52.985Z,0.70
2023-05-06T03:56:27.936Z,0.70
2023-05-06T03:59:01.186Z,0.70
2023-05-06T04:01:35.211Z,0.70
2023-05-06T04:04:08.526Z,0.70
2023-05-06T04:06:41.876Z,0.70
2023-05-06T04:09:15.590Z,0.70
2023-05-06T04:11:48.808Z,0.70
2023-05-06T04:14:21.993Z,0.70
2023-05-06T04:16:55.318Z,0.70
2023-05-06T04:19:28.497Z,0.70
2023-05-06T04:22:02.346Z,0.70
2023-05-06T04:24:35.507Z,0.70
2023-05-06T04:27:08.794Z,0.70
2023-05-06T04:29:42.021Z,0.70
2023-05-06T04:32:17.279Z,0.70
2023-05-06T04:34:51.875Z,0.70
2023-05-06T04:37:25.091Z,0.70
2023-05-06T04:39:58.700Z,0.70
2023-05-06T04:42:32.521Z,2.43
2023-05-06T04:45:05.936Z,0.70
2023-05-06T04:47:39.199Z,0.70
2023-05-06T04:50:12.967Z,0.70
2023-05-06T04:52:46.232Z,0.70
2023-05-06T04:55:19.487Z,0.70
2023-05-06T04:57:52.701Z,0.70
2023-05-06T05:00:27.501Z,0.70
2023-05-06T05:03:01.867Z,0.70
2023-05-06T05:05:35.293Z,0.70
2023-05-06T05:08:08.538Z,0.70
2023-05-06T05:10:43.561Z,0.70
2023-05-06T05:13:16.965Z,0.70
2023-05-06T05:15:50.346Z,0.70
2023-05-06T05:18:23.655Z,0.80
2023-05-06T05:20:56.905Z,0.70
2023-05-06T05:23:30.322Z,0.70
2023-05-06T05:26:03.866Z,0.70
2023-05-06T05:28:37.172Z,0.70
2023-05-06T05:31:10.787Z,2.00
2023-05-06T05:33:44.072Z,0.70
2023-05-06T05:36:17.451Z,0.80
2023-05-06T05:38:50.705Z,0.70
2023-05-06T05:41:25.418Z,0.70
2023-05-06T05:43:58.600Z,0.70
2023-05-06T05:46:32.081Z,0.70
2023-05-06T05:49:05.431Z,0.70
2023-05-06T05:51:38.659Z,0.70
2023-05-06T05:54:11.974Z,0.70
2023-05-06T05:56:45.189Z,0.70
2023-05-06T05:59:18.408Z,0.73
2023-05-06T06:01:51.591Z,0.70
2023-05-06T06:04:25.621Z,0.70
2023-05-06T06:06:58.948Z,0.70
2023-05-06T06:09:32.129Z,0.70
2023-05-06T06:12:05.469Z,0.70
2023-05-06T06:14:38.805Z,0.70
2023-05-06T06:17:12.022Z,0.70
2023-05-06T06:19:48.140Z,0.70
2023-05-06T06:22:21.340Z,0.70
2023-05-06T06:24:54.598Z,0.70
2023-05-06T06:27:27.942Z,0.70
2023-05-06T06:30:01.144Z,0.70
2023-05-06T06:32:34.462Z,0.70
2023-05-06T06:35:07.953Z,0.80
2023-05-06T06:37:41.294Z,0.80
2023-05-06T06:40:14.684Z,0.70
2023-05-06T06:42:48.004Z,0.70
2023-05-06T06:45:21.300Z,0.70
2023-05-06T06:47:54.528Z,0.80
2023-05-06T06:50:27.742Z,0.80
2023-05-06T06:53:01.249Z,0.70
2023-05-06T06:55:34.551Z,0.70
2023-05-06T06:58:07.728Z,0.70
2023-05-06T07:00:41.029Z,0.80
2023-05-06T07:03:15.830Z,0.70
2023-05-06T07:05:50.177Z,0.70
2023-05-06T07:08:23.428Z,0.70
2023-05-06T07:10:56.706Z,0.80
2023-05-06T07:13:29.889Z,0.70
2023-05-06T07:16:03.158Z,0.80
2023-05-06T07:18:36.510Z,0.70
2023-05-06T07:21:09.681Z,0.70
2023-05-06T07:23:42.937Z,0.70
2023-05-06T07:26:16.114Z,0.70
2023-05-06T07:28:49.360Z,0.70
2023-05-06T07:31:22.701Z,0.70
2023-05-06T07:33:56.504Z,0.70
2023-05-06T07:36:31.017Z,0.70
2023-05-06T07:39:04.514Z,0.70
2023-05-06T07:41:37.674Z,0.70
2023-05-06T07:44:11.098Z,1.67
2023-05-06T07:46:44.522Z,0.70
2023-05-06T07:49:17.882Z,0.70
2023-05-06T07:51:51.157Z,0.70
2023-05-06T07:54:24.383Z,0.70
2023-05-06T07:56:57.721Z,0.70
2023-05-06T07:59:30.988Z,0.70
2023-05-06T08:02:04.301Z,0.70
2023-05-06T08:04:37.775Z,0.70
2023-05-06T08:07:11.366Z,0.70
2023-05-06T08:09:44.675Z,0.70
2023-05-06T08:12:17.936Z,0.70
2023-05-06T08:14:51.159Z,0.70
2023-05-06T08:17:24.414Z,0.70
2023-05-06T08:19:57.611Z,0.70
2023-05-06T08:22:30.989Z,0.70
2023-05-06T08:25:04.395Z,0.70
2023-05-06T08:27:37.757Z,0.70
2023-05-06T08:30:11.225Z,0.70
2023-05-06T08:32:44.497Z,48.87
2023-05-06T08:35:17.763Z,0.70
2023-05-06T08:37:51.004Z,0.70
2023-05-06T08:40:26.989Z,0.70
2023-05-06T08:43:00.742Z,0.70
2023-05-06T08:45:34.100Z,0.70
2023-05-06T08:48:07.383Z,0.70
2023-05-06T08:50:44.111Z,0.70
2023-05-06T08:53:17.558Z,0.97
2023-05-06T08:55:52.365Z,0.70
2023-05-06T08:58:26.928Z,0.70
2023-05-06T09:01:00.749Z,0.70
2023-05-06T09:03:34.184Z,0.70
2023-05-06T09:06:07.598Z,0.70
2023-05-06T09:08:41.035Z,0.70
2023-05-06T09:11:23.922Z,0.70
2023-05-06T09:14:14.050Z,0.70
2023-05-06T09:16:49.454Z,0.70
2023-05-06T09:19:23.357Z,0.70
2023-05-06T09:21:57.335Z,0.70
2023-05-06T09:24:30.673Z,0.70
2023-05-06T09:27:04.380Z,0.70
2023-05-06T09:29:37.555Z,0.70
2023-05-06T09:32:11.671Z,0.70
2023-05-06T09:34:46.409Z,0.70
2023-05-06T09:37:21.042Z,2.10
2023-05-06T09:39:55.556Z,0.73
2023-05-06T09:42:30.167Z,0.70
2023-05-06T09:45:03.434Z,0.70
2023-05-06T09:47:36.735Z,0.70
2023-05-06T09:50:10.227Z,0.70
2023-05-06T09:52:46.767Z,0.70
2023-05-06T09:55:20.800Z,0.70
2023-05-06T09:57:54.569Z,0.70
2023-05-06T10:00:29.088Z,0.70
2023-05-06T10:03:03.046Z,0.70
2023-05-06T10:05:37.591Z,0.70
2023-05-06T10:08:13.273Z,0.70
2023-05-06T10:10:47.109Z,0.70
2023-05-06T10:13:21.570Z,0.70
2023-05-06T10:15:55.090Z,0.70
2023-05-06T10:18:30.978Z,0.70
2023-05-06T10:21:04.541Z,0.80
2023-05-06T10:24:00.724Z,0.70
2023-05-06T10:26:36.180Z,0.70
2023-05-06T10:29:10.486Z,0.70
2023-05-06T10:31:54.239Z,0.70
2023-05-06T10:34:30.066Z,0.70
2023-05-06T10:37:04.095Z,0.70
2023-05-06T10:39:37.325Z,0.70
2023-05-06T10:42:13.634Z,0.70
2023-05-06T10:44:59.024Z,0.70
2023-05-06T10:47:50.694Z,0.70
2023-05-06T10:50:27.744Z,0.70
2023-05-06T10:53:01.011Z,0.70
2023-05-06T10:55:35.712Z,0.70
2023-05-06T10:58:11.959Z,0.70
2023-05-06T11:00:54.574Z,0.70
2023-05-06T11:03:29.096Z,0.70
2023-05-06T11:06:02.458Z,0.70
2023-05-06T11:08:36.081Z,0.70
2023-05-06T11:11:45.037Z,0.70
2023-05-06T11:14:36.948Z,0.70
2023-05-06T11:17:10.780Z,0.70
2023-05-06T11:19:44.017Z,0.70
2023-05-06T11:22:37.192Z,0.70
2023-05-06T11:25:10.453Z,0.70
2023-05-06T11:27:43.707Z,0.70
2023-05-06T11:30:17.343Z,0.70
2023-05-06T11:32:50.966Z,0.70
2023-05-06T11:35:26.253Z,0.70
2023-05-06T11:37:59.656Z,0.70
2023-05-06T11:40:33.142Z,0.70
2023-05-06T11:43:13.278Z,0.70
2023-05-06T11:45:47.678Z,0.70
2023-05-06T11:48:21.192Z,0.70
2023-05-06T11:50:56.364Z,0.70
2023-05-06T11:53:30.524Z,0.70
2023-05-06T11:56:03.789Z,0.70
2023-05-06T11:58:37.016Z,0.70
2023-05-06T12:01:10.605Z,0.70
2023-05-06T12:03:44.011Z,0.70
2023-05-06T12:06:19.111Z,0.70
2023-05-06T12:08:52.365Z,0.70
2023-05-06T12:11:25.731Z,0.70
2023-05-06T12:13:59.053Z,9.00
2023-05-06T12:16:32.517Z,10.93
2023-05-06T12:19:06.047Z,9.73
2023-05-06T12:21:39.760Z,8.70
2023-05-06T12:24:13.027Z,7.83
2023-05-06T12:26:47.482Z,12.90
2023-05-06T12:29:20.677Z,12.63
2023-05-06T12:32:08.566Z,9.37
2023-05-06T12:34:42.234Z,10.03
2023-05-06T12:37:24.894Z,12.60
2023-05-06T12:39:59.320Z,22.63
2023-05-06T12:42:41.054Z,11.30
2023-05-06T12:45:15.826Z,15.60
2023-05-06T12:47:59.062Z,24.67
2023-05-06T12:50:38.374Z,13.27
2023-05-06T12:53:15.865Z,17.93
2023-05-06T12:55:49.048Z,17.40
2023-05-06T12:58:22.261Z,14.63
2023-05-06T13:00:55.708Z,19.43
2023-05-06T13:03:29.160Z,16.13
2023-05-06T13:06:02.523Z,29.17
2023-05-06T13:08:36.079Z,12.00
2023-05-06T13:11:09.325Z,16.57
2023-05-06T13:13:42.577Z,19.43
2023-05-06T13:16:16.097Z,14.40
2023-05-06T13:18:50.464Z,11.27
2023-05-06T13:21:23.751Z,17.93
2023-05-06T13:23:56.941Z,21.83
2023-05-06T13:26:30.146Z,9.70
2023-05-06T13:29:03.487Z,11.80
2023-05-06T13:31:36.759Z,11.03
2023-05-06T13:34:09.950Z,10.33
2023-05-06T13:36:43.883Z,14.13
2023-05-06T13:39:17.566Z,15.10
2023-05-06T13:41:50.958Z,13.53
2023-05-06T13:44:24.611Z,12.03
2023-05-06T13:46:58.151Z,16.20
2023-05-06T13:49:31.545Z,18.43
2023-05-06T13:52:07.111Z,15.07
2023-05-06T13:54:41.308Z,10.13
2023-05-06T13:57:14.481Z,14.13
2023-05-06T13:59:49.038Z,11.40
2023-05-06T14:02:22.274Z,11.60
2023-05-06T14:04:55.720Z,11.33
2023-05-06T14:07:28.963Z,12.10
2023-05-06T14:10:02.334Z,13.17
2023-05-06T14:12:35.678Z,12.87
2023-05-06T14:15:09.913Z,15.10
2023-05-06T14:17:43.730Z,15.30
2023-05-06T14:20:16.969Z,16.97
2023-05-06T14:22:50.240Z,16.00
2023-05-06T14:25:26.846Z,13.47
2023-05-06T14:28:00.468Z,14.23
2023-05-06T14:30:34.353Z,15.40
2023-05-06T14:33:07.947Z,19.10
2023-05-06T14:35:42.322Z,14.67
2023-05-06T14:38:15.613Z,20.27
2023-05-06T14:40:48.914Z,22.70
2023-05-06T14:43:22.110Z,19.50
2023-05-06T14:45:55.360Z,17.03
2023-05-06T14:48:28.727Z,19.70
2023-05-06T14:51:01.958Z,22.13
2023-05-06T14:53:35.622Z,20.60
2023-05-06T14:56:10.368Z,19.13
2023-05-06T14:58:43.620Z,17.37
2023-05-06T15:01:16.867Z,18.47
2023-05-06T15:03:51.173Z,15.23
2023-05-06T15:06:24.648Z,16.23
2023-05-06T15:08:57.886Z,17.87
2023-05-06T15:11:31.467Z,14.23
2023-05-06T15:14:04.615Z,18.67
2023-05-06T15:16:38.108Z,15.70
2023-05-06T15:19:11.374Z,16.40
2023-05-06T15:21:44.587Z,15.07
2023-05-06T15:24:17.800Z,20.37
2023-05-06T15:26:51.016Z,14.13
2023-05-06T15:29:24.742Z,16.10
2023-05-06T15:31:58.167Z,16.90
2023-05-06T15:34:31.394Z,15.97
2023-05-06T15:37:04.639Z,22.67
2023-05-06T15:39:37.884Z,13.60
2023-05-06T15:42:11.176Z,16.67
2023-05-06T15:44:44.344Z,13.73
2023-05-06T15:47:18.091Z,13.03
2023-05-06T15:49:54.793Z,15.50
2023-05-06T15:52:28.614Z,16.43
2023-05-06T15:55:01.814Z,16.70
2023-05-06T15:57:35.025Z,20.37
2023-05-06T16:00:08.618Z,14.10
2023-05-06T16:02:42.113Z,15.17
2023-05-06T16:05:15.450Z,21.60
2023-05-06T16:07:49.012Z,21.00
2023-05-06T16:10:22.215Z,13.60
2023-05-06T16:12:55.510Z,17.30
2023-05-06T16:15:28.770Z,18.67
2023-05-06T16:18:02.165Z,15.43
2023-05-06T16:20:35.365Z,17.60
2023-05-06T16:23:08.816Z,19.57
2023-05-06T16:25:41.989Z,26.13
2023-05-06T16:28:15.244Z,10.13
2023-05-06T16:30:48.487Z,20.00
2023-05-06T16:33:21.689Z,30.00
2023-05-06T16:35:54.953Z,20.87
2023-05-06T16:38:28.215Z,20.23
2023-05-06T16:41:01.482Z,22.17
2023-05-06T16:43:34.769Z,17.43
2023-05-06T16:46:08.066Z,13.37
2023-05-06T16:48:41.381Z,16.07
2023-05-06T16:51:16.045Z,12.43
2023-05-06T16:53:49.305Z,16.47
2023-05-06T16:56:22.716Z,39.07
2023-05-06T16:58:56.052Z,36.03
2023-05-06T17:01:29.502Z,30.93
2023-05-06T17:04:03.064Z,21.53
2023-05-06T17:06:36.298Z,20.40
2023-05-06T17:09:10.077Z,24.10
2023-05-06T17:11:43.422Z,22.87
2023-05-06T17:14:16.762Z,22.53
2023-05-06T17:16:51.962Z,19.20
2023-05-06T17:19:25.207Z,19.37
2023-05-06T17:21:58.403Z,16.53
2023-05-06T17:24:31.639Z,18.73
2023-05-06T17:27:04.871Z,17.00
2023-05-06T17:29:38.190Z,19.00
2023-05-06T17:32:11.464Z,17.30
2023-05-06T17:34:45.652Z,13.67
2023-05-06T17:37:18.978Z,22.83
2023-05-06T17:39:53.285Z,21.73
2023-05-06T17:42:27.477Z,16.90
2023-05-06T17:45:00.818Z,13.97
2023-05-06T17:47:34.328Z,18.60
2023-05-06T17:50:07.756Z,24.77
2023-05-06T17:52:40.973Z,17.57
2023-05-06T17:55:17.416Z,20.20
2023-05-06T17:57:52.441Z,17.27
2023-05-06T18:00:25.768Z,15.53
2023-05-06T18:02:59.680Z,13.93
2023-05-06T18:05:32.996Z,16.87
2023-05-06T18:08:06.728Z,21.17
2023-05-06T18:10:41.351Z,20.50
2023-05-06T18:13:14.903Z,16.73
2023-05-06T18:15:48.176Z,12.50
2023-05-06T18:18:21.610Z,19.80
2023-05-06T18:20:54.850Z,19.03
2023-05-06T18:23:29.947Z,15.07
2023-05-06T18:26:06.398Z,15.67
2023-05-06T18:28:43.842Z,13.57
2023-05-06T18:31:17.026Z,29.13
2023-05-06T18:33:50.293Z,24.13
2023-05-06T18:36:23.503Z,20.80
2023-05-06T18:38:56.680Z,29.40
2023-05-06T18:41:29.884Z,20.00
2023-05-06T18:44:04.353Z,21.23
2023-05-06T18:46:37.844Z,17.57
2023-05-06T18:49:13.936Z,22.63
2023-05-06T18:51:47.190Z,13.03
2023-05-06T18:54:20.545Z,17.00
2023-05-06T18:56:54.700Z,17.90
2023-05-06T18:59:27.976Z,16.57
2023-05-06T19:02:03.151Z,16.43
2023-05-06T19:04:37.125Z,17.53
2023-05-06T19:07:11.135Z,18.07
2023-05-06T19:09:44.343Z,16.03
2023-05-06T19:12:18.339Z,9.50
2023-05-06T19:14:51.600Z,20.23
2023-05-06T19:17:24.879Z,11.17
2023-05-06T19:19:58.106Z,19.10
2023-05-06T19:22:32.876Z,14.87
2023-05-06T19:25:06.185Z,8.33
2023-05-06T19:27:39.389Z,12.00
2023-05-06T19:30:12.616Z,15.37
2023-05-06T19:32:45.941Z,9.80
2023-05-06T19:35:19.283Z,13.03
2023-05-06T19:37:52.515Z,8.00
2023-05-06T19:40:25.821Z,11.20
2023-05-06T19:43:03.769Z,11.97
2023-05-06T19:45:36.967Z,17.93
2023-05-06T19:48:10.355Z,22.87
2023-05-06T19:50:43.538Z,14.50
2023-05-06T19:53:17.791Z,15.93
2023-05-06T19:55:51.529Z,9.10
2023-05-06T19:58:24.698Z,16.90
2023-05-06T20:00:57.881Z,14.40
2023-05-06T20:03:31.630Z,12.50
2023-05-06T20:06:04.922Z,18.00
2023-05-06T20:08:38.199Z,16.30
2023-05-06T20:11:11.453Z,15.90
2023-05-06T20:13:44.604Z,14.13
2023-05-06T20:16:17.924Z,8.33
2023-05-06T20:18:51.509Z,11.87
2023-05-06T20:21:24.818Z,19.63
2023-05-06T20:23:58.122Z,12.07
2023-05-06T20:26:31.370Z,13.40
2023-05-06T20:29:04.547Z,13.13
2023-05-06T20:31:37.783Z,13.03
2023-05-06T20:34:10.962Z,16.07
2023-05-06T20:36:44.362Z,14.07
2023-05-06T20:39:17.992Z,12.33
2023-05-06T20:41:51.303Z,15.93
2023-05-06T20:44:25.022Z,14.40
2023-05-06T20:46:58.213Z,9.90
2023-05-06T20:49:31.416Z,12.10
2023-05-06T20:52:07.649Z,13.53
2023-05-06T20:54:42.153Z,12.20
2023-05-06T20:57:16.232Z,7.53
2023-05-06T20:59:52.565Z,8.60
2023-05-06T21:02:29.194Z,9.17
2023-05-06T21:05:02.408Z,12.00
2023-05-06T21:07:35.611Z,6.63
2023-05-06T21:10:09.842Z,9.00
2023-05-06T21:12:49.468Z,8.30
2023-05-06T21:15:22.808Z,7.40
2023-05-06T21:17:56.117Z,8.13
2023-05-06T21:20:29.412Z,8.83
2023-05-06T21:23:03.458Z,7.80
2023-05-06T21:25:36.695Z,9.80
2023-05-06T21:28:09.883Z,9.37
2023-05-06T21:30:43.205Z,5.77
2023-05-06T21:33:16.616Z,6.40
2023-05-06T21:35:49.822Z,3.47
2023-05-06T21:38:23.054Z,6.33
2023-05-06T21:40:56.319Z,8.37
2023-05-06T21:43:31.320Z,9.40
2023-05-06T21:46:05.447Z,7.37
2023-05-06T21:48:38.689Z,8.07
2023-05-06T21:51:11.896Z,10.50
2023-05-06T21:53:49.433Z,10.40
2023-05-06T21:56:22.658Z,8.40
2023-05-06T21:58:56.289Z,7.60
2023-05-06T22:01:29.538Z,6.63
2023-05-06T22:04:04.784Z,8.27
2023-05-06T22:06:38.188Z,7.40
2023-05-06T22:09:11.874Z,11.00
2023-05-06T22:11:45.122Z,11.80
2023-05-06T22:14:21.917Z,6.30
2023-05-06T22:16:57.642Z,12.67
2023-05-06T22:19:30.856Z,9.60
2023-05-06T22:22:04.657Z,14.90
2023-05-06T22:24:37.844Z,8.43
2023-05-06T22:27:11.681Z,8.20
2023-05-06T22:29:44.901Z,8.47
2023-05-06T22:32:18.281Z,7.27
2023-05-06T22:34:51.470Z,10.37
2023-05-06T22:37:24.614Z,7.93
2023-05-06T22:39:58.163Z,9.70
2023-05-06T22:42:31.364Z,16.37
2023-05-06T22:45:04.877Z,6.23
2023-05-06T22:47:38.141Z,8.73
2023-05-06T22:50:11.638Z,10.73
2023-05-06T22:52:44.852Z,9.33
2023-05-06T22:55:18.029Z,7.40
2023-05-06T22:57:53.806Z,7.00
2023-05-06T23:00:27.024Z,6.97
2023-05-06T23:03:00.276Z,8.60
2023-05-06T23:05:33.551Z,8.40
2023-05-06T23:08:06.742Z,3.63
2023-05-06T23:10:40.050Z,3.93
2023-05-06T23:13:13.286Z,6.27
2023-05-06T23:15:46.523Z,6.80
2023-05-06T23:18:20.625Z,5.60
2023-05-06T23:20:53.904Z,5.27
2023-05-06T23:23:27.141Z,5.87
2023-05-06T23:26:00.541Z,6.93
2023-05-06T23:28:33.801Z,6.97
2023-05-06T23:31:07.028Z,8.60
2023-05-06T23:33:40.278Z,6.90
2023-05-06T23:36:13.509Z,14.03
2023-05-06T23:38:46.747Z,5.20
2023-05-06T23:41:19.941Z,12.20
2023-05-06T23:43:53.080Z,7.70
2023-05-06T23:46:26.387Z,10.53
2023-05-06T23:48:59.607Z,18.27
2023-05-06T23:51:32.892Z,12.33
2023-05-06T23:54:06.139Z,7.90
2023-05-06T23:56:39.388Z,12.43
2023-05-06T23:59:12.602Z,9.90
